Time;durP1;ratioP1;P1;durP2;ratioP2;P2;SDS_P1;SDS_P2;PMS_P1;PMS_P2;Temp;Humidity;BMP_temperature;BMP_pressure;BME280_temperature;BME280_humidity;BME280_pressure;Samples;Min_cycle;Max_cycle;Signal;HPM_P1;HPM_P2
2022/06/15 00:02:30;;;;;;;;;;;;;;;;;;2202703;67;1213;-65
2022/06/15 00:05:04;;;;;;;;;;;;;;;;;;2202707;67;1069;-64
2022/06/15 00:07:37;;;;;;;;;;;;;;;;;;2202999;67;1259;-65
2022/06/15 00:10:13;;;;;;;;;;;;;;;;;;2203024;67;1047;-65
2022/06/15 00:12:46;;;;;;;;;;;;;;;;;;2203194;59;1408;-65
2022/06/15 00:15:20;;;;;;;;;;;;;;;;;;2203016;67;1266;-66
2022/06/15 00:17:53;;;;;;;;;;;;;;;;;;2202856;67;1981;-66
2022/06/15 00:20:26;;;;;;;;;;;;;;;;;;2203129;67;1237;-66
2022/06/15 00:22:59;;;;;;;;;;;;;;;;;;2203174;67;1226;-65
2022/06/15 00:25:35;;;;;;;;;;;;;;;;;;2201245;59;1730;-65
2022/06/15 00:28:08;;;;;;;;;;;;;;;;;;2202514;59;1767;-65
2022/06/15 00:30:42;;;;;;;;;;;;;;;;;;2203095;67;1232;-66
2022/06/15 00:33:15;;;;;;;;;;;;;;;;;;2202343;67;1263;-65
2022/06/15 00:35:58;;;;;;;;;;;;;;;;;;2202614;59;1602;-65
2022/06/15 00:38:32;;;;;;;;;;;;;;;;;;2202462;59;2044;-66
2022/06/15 00:41:09;;;;;;;;;;;;;;;;;;2203124;59;1981;-65
2022/06/15 00:43:44;;;;;;;;;;;;;;;;;;2203207;67;1187;-65
2022/06/15 00:46:20;;;;;;;;;;;;;;;;;;2203278;67;1219;-65
2022/06/15 00:48:54;;;;;;;;;;;;;;;;;;2202968;59;1215;-65
2022/06/15 00:51:28;;;;;;;;;;;;;;;;;;2203145;67;1227;-65
2022/06/15 00:54:02;;;;;;;;;;;;;;;;;;2202461;67;1342;-65
2022/06/15 00:56:38;;;;;;;;;;;;;;;;;;2203164;59;1236;-65
2022/06/15 00:59:15;;;;;;;;;;;;;;;;;;2202944;60;1937;-64
2022/06/15 01:01:48;;;;;;;;;;;;;;;;;;2202562;67;1207;-65
2022/06/15 01:04:22;;;;;;;;;;;;;;;;;;2203109;59;1319;-65
2022/06/15 01:07:01;;;;;;;;;;;;;;;;;;2202683;67;1247;-65
2022/06/15 01:09:38;;;;;;;;;;;;;;;;;;2202274;59;1966;-63
2022/06/15 01:12:20;;;;;;;;;;;;;;;;;;2202756;59;1394;-64
2022/06/15 01:15:02;;;;;;;;;;;;;;;;;;2202766;67;1089;-65
2022/06/15 01:17:47;;;;;;;;;;;;;;;;;;2202329;67;1213;-65
2022/06/15 01:20:27;;;;;;;;;;;;;;;;;;2203023;67;2012;-65
2022/06/15 01:23:18;;;;;;;;;;;;;;;;;;2202802;67;1224;-63
2022/06/15 01:25:55;;;;;;;;;;;;;;;;;;2202023;67;1431;-65
2022/06/15 01:28:35;;;;;;;;;;;;;;;;;;2202886;67;1266;-65
2022/06/15 01:31:17;;;;;;;;;;;;;;;;;;2202710;67;1164;-65
2022/06/15 01:33:55;;;;;;;;;;;;;;;;;;2202875;67;1210;-64
2022/06/15 01:36:31;;;;;;;;;;;;;;;;;;2203479;67;1207;-65
2022/06/15 01:39:07;;;;;;;;;;;;;;;;;;2202491;59;2011;-65
2022/06/15 01:41:43;;;;;;;;;;;;;;;;;;2202413;59;2083;-65
2022/06/15 01:44:18;;;;;;;;;;;;;;;;;;2202690;59;2081;-65
2022/06/15 01:46:54;;;;;;;;;;;;;;;;;;2202317;67;1682;-65
2022/06/15 01:49:30;;;;;;;;;;;;;;;;;;2203286;67;1241;-65
2022/06/15 01:52:05;;;;;;;;;;;;;;;;;;2202884;67;1096;-65
2022/06/15 01:54:39;;;;;;;;;;;;;;;;;;2203243;67;1280;-65
2022/06/15 01:57:14;;;;;;;;;;;;;;;;;;2202954;59;1175;-65
2022/06/15 01:59:50;;;;;;;;;;;;;;;;;;2202683;59;1933;-65
2022/06/15 02:02:30;;;;;;;;;;;;;;;;;;2202605;59;1777;-65
2022/06/15 02:05:08;;;;;;;;;;;;;;;;;;2202299;59;1552;-65
2022/06/15 02:07:45;;;;;;;;;;;;;;;;;;2202642;59;1412;-65
2022/06/15 02:10:21;;;;;;;;;;;;;;;;;;2202625;67;1083;-65
2022/06/15 02:12:56;;;;;;;;;;;;;;;;;;2202711;59;1364;-63
2022/06/15 02:15:31;;;;;;;;;;;;;;;;;;2202951;67;1221;-65
2022/06/15 02:18:09;;;;;;;;;;;;;;;;;;2202811;67;1096;-65
2022/06/15 02:20:45;;;;;;;;;;;;;;;;;;2202189;67;1985;-65
2022/06/15 02:23:19;;;;;;;;;;;;;;;;;;2203045;67;1120;-65
2022/06/15 02:25:53;;;;;;;;;;;;;;;;;;2203289;67;1262;-65
2022/06/15 02:28:30;;;;;;;;;;;;;;;;;;2201383;67;1224;-65
2022/06/15 02:31:03;;;;;;;;;;;;;;;;;;2202772;67;1099;-65
2022/06/15 02:33:47;;;;;;;;;;;;;;;;;;2203022;67;1088;-64
2022/06/15 02:36:21;;;;;;;;;;;;;;;;;;2203118;67;1180;-65
2022/06/15 02:38:54;;;;;;;;;;;;;;;;;;2202582;59;1940;-64
2022/06/15 02:41:27;;;;;;;;;;;;;;;;;;2202646;59;1987;-65
2022/06/15 02:44:02;;;;;;;;;;;;;;;;;;2202746;67;1250;-65
2022/06/15 02:46:39;;;;;;;;;;;;;;;;;;2202745;67;1242;-63
2022/06/15 02:49:15;;;;;;;;;;;;;;;;;;2202766;67;1265;-65
2022/06/15 02:51:50;;;;;;;;;;;;;;;;;;2202709;67;1135;-65
2022/06/15 02:54:25;;;;;;;;;;;;;;;;;;2202735;67;1155;-64
2022/06/15 02:56:59;;;;;;;;;;;;;;;;;;2202954;67;1143;-65
2022/06/15 02:59:32;;;;;;;;;;;;;;;;;;2201910;59;1935;-65
2022/06/15 03:02:06;;;;;;;;;;;;;;;;;;2202556;67;1021;-65
2022/06/15 03:04:41;;;;;;;;;;;;;;;;;;2202539;59;1938;-65
2022/06/15 03:07:16;;;;;;;;;;;;;;;;;;2202863;67;1242;-64
2022/06/15 03:09:49;;;;;;;;;;;;;;;;;;2202764;67;1238;-65
2022/06/15 03:12:22;;;;;;;;;;;;;;;;;;2202951;59;1461;-65
2022/06/15 03:14:55;;;;;;;;;;;;;;;;;;2202153;59;1635;-65
2022/06/15 03:17:28;;;;;;;;;;;;;;;;;;2203062;67;1222;-65
2022/06/15 03:20:04;;;;;;;;;;;;;;;;;;2202496;67;1980;-65
2022/06/15 03:22:38;;;;;;;;;;;;;;;;;;2202756;67;1100;-65
2022/06/15 03:25:12;;;;;;;;;;;;;;;;;;2203013;67;1128;-65
2022/06/15 03:27:45;;;;;;;;;;;;;;;;;;2202535;59;1697;-64
2022/06/15 03:30:18;;;;;;;;;;;;;;;;;;2202564;59;1914;-65
2022/06/15 03:32:51;;;;;;;;;;;;;;;;;;2202548;59;1685;-64
2022/06/15 03:35:34;;;;;;;;;;;;;;;;;;2202345;59;1729;-65
2022/06/15 03:38:08;;;;;;;;;;;;;;;;;;2202543;59;1993;-65
2022/06/15 03:40:44;;;;;;;;;;;;;;;;;;2202667;59;2047;-64
2022/06/15 03:43:18;;;;;;;;;;;;;;;;;;2202439;59;1701;-64
2022/06/15 03:45:51;;;;;;;;;;;;;;;;;;2202751;67;1152;-65
2022/06/15 03:48:25;;;;;;;;;;;;;;;;;;2202653;59;1721;-65
2022/06/15 03:51:00;;;;;;;;;;;;;;;;;;2201733;59;1689;-65
2022/06/15 03:53:34;;;;;;;;;;;;;;;;;;2202557;67;1111;-64
2022/06/15 03:56:08;;;;;;;;;;;;;;;;;;2202413;59;1218;-65
2022/06/15 03:58:41;;;;;;;;;;;;;;;;;;2202733;67;1122;-65
2022/06/15 04:01:14;;;;;;;;;;;;;;;;;;2202282;59;1992;-65
2022/06/15 04:03:48;;;;;;;;;;;;;;;;;;2202396;59;1591;-65
2022/06/15 04:06:24;;;;;;;;;;;;;;;;;;2202524;59;1777;-65
2022/06/15 04:08:54;;;;;;;;;;;;;;;;;;2201947;59;1727;-65
2022/06/15 04:14:16;;;;;;;;;;;;;;;;;;2202251;59;1772;-65
2022/06/15 04:16:53;;;;;;;;;;;;;;;;;;2202478;59;1245;-64
2022/06/15 04:19:27;;;;;;;;;;;;;;;;;;2202600;59;1929;-65
2022/06/15 04:22:03;;;;;;;;;;;;;;;;;;2201671;59;1791;-65
2022/06/15 04:24:39;;;;;;;;;;;;;;;;;;2201647;59;2060;-63
2022/06/15 04:27:14;;;;;;;;;;;;;;;;;;2202294;67;1242;-65
2022/06/15 04:29:47;;;;;;;;;;;;;;;;;;2202316;67;1082;-65
2022/06/15 04:32:20;;;;;;;;;;;;;;;;;;2202384;67;1077;-65
2022/06/15 04:34:54;;;;;;;;;;;;;;;;;;2202694;67;1108;-65
2022/06/15 04:37:30;;;;;;;;;;;;;;;;;;2201900;59;1833;-65
2022/06/15 04:40:03;;;;;;;;;;;;;;;;;;2200758;59;1941;-63
2022/06/15 04:42:37;;;;;;;;;;;;;;;;;;2202217;59;1946;-65
2022/06/15 04:45:11;;;;;;;;;;;;;;;;;;2202610;67;1085;-64
2022/06/15 04:47:45;;;;;;;;;;;;;;;;;;2202320;60;1326;-64
2022/06/15 04:50:18;;;;;;;;;;;;;;;;;;2202883;67;1064;-65
2022/06/15 04:52:54;;;;;;;;;;;;;;;;;;2203068;67;1101;-65
2022/06/15 04:55:27;;;;;;;;;;;;;;;;;;2203296;59;1268;-65
2022/06/15 04:58:01;;;;;;;;;;;;;;;;;;2202983;59;1166;-64
2022/06/15 05:00:35;;;;;;;;;;;;;;;;;;2202862;59;1929;-65
2022/06/15 05:03:09;;;;;;;;;;;;;;;;;;2203330;59;1273;-65
2022/06/15 05:05:42;;;;;;;;;;;;;;;;;;2202493;67;1195;-65
2022/06/15 05:08:18;;;;;;;;;;;;;;;;;;2203485;59;1026;-65
2022/06/15 05:10:51;;;;;;;;;;;;;;;;;;2203079;59;1454;-65
2022/06/15 05:13:24;;;;;;;;;;;;;;;;;;2203271;59;1581;-65
2022/06/15 05:15:58;;;;;;;;;;;;;;;;;;2203222;67;1294;-64
2022/06/15 05:18:31;;;;;;;;;;;;;;;;;;2202973;67;1133;-65
2022/06/15 05:21:04;;;;;;;;;;;;;;;;;;2202868;67;1938;-64
2022/06/15 05:23:40;;;;;;;;;;;;;;;;;;2203420;67;1204;-65
2022/06/15 05:26:14;;;;;;;;;;;;;;;;;;2203031;59;1680;-64
2022/06/15 05:28:50;;;;;;;;;;;;;;;;;;2203437;67;1838;-65
2022/06/15 05:31:24;;;;;;;;;;;;;;;;;;2203120;59;1675;-65
2022/06/15 05:33:58;;;;;;;;;;;;;;;;;;2202746;67;1210;-64
2022/06/15 05:36:34;;;;;;;;;;;;;;;;;;2203346;59;1203;-65
2022/06/15 05:39:12;;;;;;;;;;;;;;;;;;2202853;59;1910;-66
2022/06/15 05:41:49;;;;;;;;;;;;;;;;;;2202800;59;2079;-65
2022/06/15 05:44:27;;;;;;;;;;;;;;;;;;2202884;67;1173;-65
2022/06/15 05:47:01;;;;;;;;;;;;;;;;;;2202481;67;1267;-65
2022/06/15 05:49:34;;;;;;;;;;;;;;;;;;2202953;67;1222;-65
2022/06/15 05:52:07;;;;;;;;;;;;;;;;;;2202887;67;1073;-65
2022/06/15 05:54:43;;;;;;;;;;;;;;;;;;2203388;67;1279;-65
2022/06/15 05:57:19;;;;;;;;;;;;;;;;;;2202281;59;1603;-64
2022/06/15 05:59:53;;;;;;;;;;;;;;;;;;2202864;59;1918;-66
2022/06/15 06:02:27;;;;;;;;;;;;;;;;;;2202870;67;1275;-65
2022/06/15 06:05:00;;;;;;;;;;;;;;;;;;2202782;59;1351;-65
2022/06/15 06:07:34;;;;;;;;;;;;;;;;;;2203181;67;1243;-65
2022/06/15 06:10:10;;;;;;;;;;;;;;;;;;2202784;59;1169;-65
2022/06/15 06:12:44;;;;;;;;;;;;;;;;;;2203385;59;1712;-65
2022/06/15 06:15:17;;;;;;;;;;;;;;;;;;2203123;67;1217;-66
2022/06/15 06:17:50;;;;;;;;;;;;;;;;;;2202762;67;1200;-65
2022/06/15 06:20:24;;;;;;;;;;;;;;;;;;2202887;67;1929;-64
2022/06/15 06:22:57;;;;;;;;;;;;;;;;;;2202774;67;1101;-65
2022/06/15 06:25:33;;;;;;;;;;;;;;;;;;2203656;67;1205;-65
2022/06/15 06:28:06;;;;;;;;;;;;;;;;;;2201742;67;1140;-63
2022/06/15 06:30:39;;;;;;;;;;;;;;;;;;2203165;67;1177;-65
2022/06/15 06:33:12;;;;;;;;;;;;;;;;;;2203101;67;1128;-65
2022/06/15 06:35:46;;;;;;;;;;;;;;;;;;2203347;67;1172;-65
2022/06/15 06:38:20;;;;;;;;;;;;;;;;;;2203210;59;2013;-64
2022/06/15 06:40:59;;;;;;;;;;;;;;;;;;2202600;59;1987;-65
2022/06/15 06:43:32;;;;;;;;;;;;;;;;;;2201927;59;1703;-64
2022/06/15 06:46:06;;;;;;;;;;;;;;;;;;2202206;59;1983;-65
2022/06/15 06:48:40;;;;;;;;;;;;;;;;;;2202837;67;1443;-63
2022/06/15 06:51:13;;;;;;;;;;;;;;;;;;2202689;59;1780;-65
2022/06/15 06:53:46;;;;;;;;;;;;;;;;;;2202067;59;1724;-65
2022/06/15 06:56:22;;;;;;;;;;;;;;;;;;2203069;59;1194;-63
2022/06/15 06:58:55;;;;;;;;;;;;;;;;;;2202733;67;1168;-65
2022/06/15 07:01:29;;;;;;;;;;;;;;;;;;2203078;67;1901;-63
2022/06/15 07:04:02;;;;;;;;;;;;;;;;;;2202621;59;1356;-65
2022/06/15 07:06:35;;;;;;;;;;;;;;;;;;2203036;67;1207;-65
2022/06/15 07:09:09;;;;;;;;;;;;;;;;;;2202958;67;1251;-65
2022/06/15 07:11:46;;;;;;;;;;;;;;;;;;2202716;59;1455;-64
2022/06/15 07:14:19;;;;;;;;;;;;;;;;;;2202011;67;1022;-66
2022/06/15 07:16:53;;;;;;;;;;;;;;;;;;2202720;67;1217;-65
2022/06/15 07:19:26;;;;;;;;;;;;;;;;;;2202490;59;1795;-64
2022/06/15 07:21:59;;;;;;;;;;;;;;;;;;2202036;59;2093;-64
2022/06/15 07:24:32;;;;;;;;;;;;;;;;;;2202202;59;1984;-65
2022/06/15 07:27:08;;;;;;;;;;;;;;;;;;2202431;59;1629;-65
2022/06/15 07:29:41;;;;;;;;;;;;;;;;;;2202517;59;1568;-64
2022/06/15 07:32:15;;;;;;;;;;;;;;;;;;2202928;67;1109;-63
2022/06/15 07:34:48;;;;;;;;;;;;;;;;;;2202249;67;1874;-65
2022/06/15 07:37:22;;;;;;;;;;;;;;;;;;2202823;67;1180;-65
2022/06/15 07:39:55;;;;;;;;;;;;;;;;;;2202276;59;1760;-65
2022/06/15 07:42:31;;;;;;;;;;;;;;;;;;2203052;59;2167;-66
2022/06/15 07:45:04;;;;;;;;;;;;;;;;;;2202452;67;1115;-65
2022/06/15 07:50:26;;;;;;;;;;;;;;;;;;2202914;67;1079;-66
2022/06/15 07:52:59;;;;;;;;;;;;;;;;;;2202622;67;1326;-65
2022/06/15 07:55:34;;;;;;;;;;;;;;;;;;2203077;67;1569;-66
2022/06/15 07:58:10;;;;;;;;;;;;;;;;;;2202403;59;1711;-66
2022/06/15 08:00:44;;;;;;;;;;;;;;;;;;2202373;59;1938;-65
2022/06/15 08:03:18;;;;;;;;;;;;;;;;;;2202759;59;1280;-66
2022/06/15 08:05:52;;;;;;;;;;;;;;;;;;2203010;67;1274;-65
2022/06/15 08:08:27;;;;;;;;;;;;;;;;;;2202823;67;1112;-66
2022/06/15 08:11:00;;;;;;;;;;;;;;;;;;2202491;59;1433;-66
2022/06/15 08:13:36;;;;;;;;;;;;;;;;;;2202689;67;1120;-65
2022/06/15 08:16:09;;;;;;;;;;;;;;;;;;2202659;67;1202;-66
2022/06/15 08:18:43;;;;;;;;;;;;;;;;;;2202718;59;1280;-66
2022/06/15 08:21:19;;;;;;;;;;;;;;;;;;2202451;67;1929;-65
2022/06/15 08:23:53;;;;;;;;;;;;;;;;;;2201963;59;2123;-66
2022/06/15 08:26:28;;;;;;;;;;;;;;;;;;2203676;67;1204;-66
2022/06/15 08:29:09;;;;;;;;;;;;;;;;;;2202390;67;1208;-65
2022/06/15 08:31:42;;;;;;;;;;;;;;;;;;2203341;67;1868;-66
2022/06/15 08:34:16;;;;;;;;;;;;;;;;;;2203381;67;1150;-65
2022/06/15 08:36:49;;;;;;;;;;;;;;;;;;2203371;67;1207;-66
2022/06/15 08:39:22;;;;;;;;;;;;;;;;;;2203480;59;1998;-65
2022/06/15 08:41:59;;;;;;;;;;;;;;;;;;2203010;59;2006;-65
2022/06/15 08:44:39;;;;;;;;;;;;;;;;;;2203667;67;1270;-66
2022/06/15 08:47:28;;;;;;;;;;;;;;;;;;2203138;67;1271;-66
2022/06/15 08:50:07;;;;;;;;;;;;;;;;;;2203210;67;1176;-65
2022/06/15 08:52:42;;;;;;;;;;;;;;;;;;2203514;59;1457;-66
2022/06/15 08:55:20;;;;;;;;;;;;;;;;;;2203184;67;1242;-66
2022/06/15 08:57:55;;;;;;;;;;;;;;;;;;2202337;59;1214;-66
2022/06/15 09:00:35;;;;;;;;;;;;;;;;;;2203669;67;1170;-65
2022/06/15 09:03:15;;;;;;;;;;;;;;;;;;2203706;59;1919;-66
2022/06/15 09:05:51;;;;;;;;;;;;;;;;;;2203580;59;1242;-63
2022/06/15 09:08:39;;;;;;;;;;;;;;;;;;2203609;67;1184;-66
2022/06/15 09:11:17;;;;;;;;;;;;;;;;;;2203004;59;1370;-66
2022/06/15 09:13:56;;;;;;;;;;;;;;;;;;2203273;67;1226;-66
2022/06/15 09:16:37;;;;;;;;;;;;;;;;;;2204678;67;1205;-66
2022/06/15 09:19:13;;;;;;;;;;;;;;;;;;2202981;67;1221;-65
2022/06/15 09:21:49;;;;;;;;;;;;;;;;;;2203015;67;1999;-66
2022/06/15 09:24:25;;;;;;;;;;;;;;;;;;2203267;67;1137;-66
2022/06/15 09:27:01;;;;;;;;;;;;;;;;;;2202860;67;1281;-65
2022/06/15 09:29:37;;;;;;;;;;;;;;;;;;2203118;67;1137;-66
2022/06/15 09:32:15;;;;;;;;;;;;;;;;;;2202843;67;1105;-66
2022/06/15 09:34:55;;;;;;;;;;;;;;;;;;2201934;59;1677;-64
2022/06/15 09:37:30;;;;;;;;;;;;;;;;;;2202980;67;1184;-66
2022/06/15 09:40:04;;;;;;;;;;;;;;;;;;2201891;59;1970;-64
2022/06/15 09:42:42;;;;;;;;;;;;;;;;;;2201950;59;1944;-66
2022/06/15 09:45:19;;;;;;;;;;;;;;;;;;2202321;59;1642;-65
2022/06/15 09:47:58;;;;;;;;;;;;;;;;;;2202901;67;1090;-66
2022/06/15 09:50:34;;;;;;;;;;;;;;;;;;2203051;67;1237;-66
2022/06/15 12:19:37;;;;;;;;;;;;;;;;;;2284582;53;2268;-75
2022/06/15 12:22:14;;;;;;;;;;;;;;;;;;2207941;59;1933;-74
2022/06/15 12:24:54;;;;;;;;;;;;;;;;;;2208836;59;1101;-74
2022/06/15 12:27:34;;;;;;;;;;;;;;;;;;2209412;59;2267;-75
2022/06/15 12:30:14;;;;;;;;;;;;;;;;;;2208557;59;2298;-75
2022/06/15 12:32:53;;;;;;;;;;;;;;;;;;2208898;59;1641;-75
2022/06/15 12:35:35;;;;;;;;;;;;;;;;;;2205504;67;1843;-75
2022/06/15 12:38:14;;;;;;;;;;;;;;;;;;2208043;59;2042;-75
2022/06/15 12:40:49;;;;;;;;;;;;;;;;;;2209041;59;2075;-75
2022/06/15 12:43:28;;;;;;;;;;;;;;;;;;2209284;59;2125;-74
2022/06/15 12:46:08;;;;;;;;;;;;;;;;;;2208600;59;1991;-75
2022/06/15 12:48:45;;;;;;;;;;;;;;;;;;2208643;59;1222;-75
2022/06/15 12:51:28;;;;;;;;;;;;;;;;;;2208662;59;1226;-74
2022/06/15 12:54:05;;;;;;;;;;;;;;;;;;2209193;59;2806;-74
2022/06/15 12:56:44;;;;;;;;;;;;;;;;;;2208979;59;2235;-75
2022/06/15 12:59:27;;;;;;;;;;;;;;;;;;2208663;59;1661;-75
2022/06/15 13:02:05;;;;;;;;;;;;;;;;;;2208613;59;1925;-75
2022/06/15 13:04:43;;;;;;;;;;;;;;;;;;2209296;59;1264;-75
2022/06/15 13:07:25;;;;;;;;;;;;;;;;;;2209409;59;1107;-75
2022/06/15 13:10:16;;;;;;;;;;;;;;;;;;2209505;67;1235;-75
2022/06/15 13:12:51;;;;;;;;;;;;;;;;;;2206752;59;1746;-75
2022/06/15 13:15:27;;;;;;;;;;;;;;;;;;2209726;59;1061;-74
2022/06/15 13:18:08;;;;;;;;;;;;;;;;;;2210329;59;2282;-75
2022/06/15 13:21:08;;;;;;;;;;;;;;;;;;2209623;59;1391;-75
2022/06/15 13:23:47;;;;;;;;;;;;;;;;;;2204901;59;1972;-74
2022/06/15 13:26:21;;;;;;;;;;;;;;;;;;2209400;59;1089;-74
2022/06/15 13:29:15;;;;;;;;;;;;;;;;;;2210232;67;1224;-75
2022/06/15 13:31:50;;;;;;;;;;;;;;;;;;2209928;67;1164;-75
2022/06/15 13:34:53;;;;;;;;;;;;;;;;;;2206193;67;1155;-75
2022/06/15 13:37:28;;;;;;;;;;;;;;;;;;2203993;67;1254;-75
2022/06/15 13:40:06;;;;;;;;;;;;;;;;;;2208309;59;2075;-76
2022/06/15 13:42:42;;;;;;;;;;;;;;;;;;2210006;59;2232;-75
2022/06/15 13:45:18;;;;;;;;;;;;;;;;;;2209652;67;1032;-76
2022/06/15 13:47:54;;;;;;;;;;;;;;;;;;2209745;59;1313;-75
2022/06/15 13:50:30;;;;;;;;;;;;;;;;;;2209741;59;1199;-74
2022/06/15 13:53:04;;;;;;;;;;;;;;;;;;2209626;59;1238;-74
2022/06/15 13:55:48;;;;;;;;;;;;;;;;;;2209174;67;1194;-74
2022/06/15 13:58:39;;;;;;;;;;;;;;;;;;2210087;59;1251;-76
2022/06/15 14:01:18;;;;;;;;;;;;;;;;;;2209664;67;1216;-77
2022/06/15 14:04:05;;;;;;;;;;;;;;;;;;2209679;59;1931;-75
2022/06/15 14:06:41;;;;;;;;;;;;;;;;;;2209054;67;1234;-75
2022/06/15 14:09:25;;;;;;;;;;;;;;;;;;2209368;67;1307;-74
2022/06/15 14:12:13;;;;;;;;;;;;;;;;;;2210351;59;1459;-75
2022/06/15 14:14:56;;;;;;;;;;;;;;;;;;2209954;67;1217;-76
2022/06/15 14:17:44;;;;;;;;;;;;;;;;;;2211758;67;1211;-75
2022/06/15 14:20:20;;;;;;;;;;;;;;;;;;2211014;59;1279;-75
2022/06/15 14:22:55;;;;;;;;;;;;;;;;;;2210197;59;1934;-74
2022/06/15 14:25:28;;;;;;;;;;;;;;;;;;2210347;67;1216;-75
2022/06/15 14:28:07;;;;;;;;;;;;;;;;;;2209506;59;1600;-74
2022/06/15 14:30:41;;;;;;;;;;;;;;;;;;2209766;59;2120;-74
2022/06/15 14:33:18;;;;;;;;;;;;;;;;;;2209774;67;1105;-74
2022/06/15 14:36:00;;;;;;;;;;;;;;;;;;2209807;59;1239;-75
2022/06/15 14:38:33;;;;;;;;;;;;;;;;;;2209071;59;1915;-75
2022/06/15 14:41:14;;;;;;;;;;;;;;;;;;2209283;59;1945;-74
2022/06/15 14:43:51;;;;;;;;;;;;;;;;;;2209858;67;1928;-76
2022/06/15 14:46:26;;;;;;;;;;;;;;;;;;2209792;67;1250;-74
2022/06/15 14:48:59;;;;;;;;;;;;;;;;;;2209619;67;1259;-75
2022/06/15 14:51:33;;;;;;;;;;;;;;;;;;2208100;67;1316;-75
2022/06/15 14:54:07;;;;;;;;;;;;;;;;;;2209433;59;1175;-75
2022/06/15 14:56:56;;;;;;;;;;;;;;;;;;2209986;59;1180;-74
2022/06/15 14:59:43;;;;;;;;;;;;;;;;;;2208700;59;1593;-75
2022/06/15 15:02:17;;;;;;;;;;;;;;;;;;2209579;67;1944;-75
2022/06/15 15:04:51;;;;;;;;;;;;;;;;;;2209577;59;1279;-74
2022/06/15 15:10:21;;;;;;;;;;;;;;;;;;2209489;67;1331;-75
2022/06/15 15:12:55;;;;;;;;;;;;;;;;;;2209333;59;1387;-75
2022/06/15 15:15:41;;;;;;;;;;;;;;;;;;2209446;59;1200;-75
2022/06/15 15:18:16;;;;;;;;;;;;;;;;;;2210408;59;1282;-75
2022/06/15 15:20:50;;;;;;;;;;;;;;;;;;2209522;67;1185;-75
2022/06/15 15:23:41;;;;;;;;;;;;;;;;;;2210809;67;1996;-75
2022/06/15 15:26:30;;;;;;;;;;;;;;;;;;2210398;67;1096;-75
2022/06/15 15:35:09;;;;;;;;;;;;;;;;;;2210676;59;1158;-74
2022/06/15 15:37:45;;;;;;;;;;;;;;;;;;2209448;67;1261;-75
2022/06/15 15:40:20;;;;;;;;;;;;;;;;;;2210048;59;2326;-75
2022/06/15 15:42:54;;;;;;;;;;;;;;;;;;2210280;59;2358;-75
2022/06/15 15:45:27;;;;;;;;;;;;;;;;;;2210855;59;1105;-74
2022/06/15 15:48:03;;;;;;;;;;;;;;;;;;2209796;67;1205;-75
2022/06/15 15:50:37;;;;;;;;;;;;;;;;;;2211334;67;1206;-74
2022/06/15 15:53:11;;;;;;;;;;;;;;;;;;2209330;60;1076;-76
2022/06/15 15:55:48;;;;;;;;;;;;;;;;;;2211383;67;1288;-74
2022/06/15 15:58:23;;;;;;;;;;;;;;;;;;2210300;59;1273;-75
2022/06/15 16:00:57;;;;;;;;;;;;;;;;;;2210291;67;1301;-75
2022/06/15 16:03:33;;;;;;;;;;;;;;;;;;2210764;59;1936;-74
2022/06/15 16:06:06;;;;;;;;;;;;;;;;;;2209320;67;1034;-74
2022/06/15 16:08:40;;;;;;;;;;;;;;;;;;2209763;67;1198;-75
2022/06/15 16:11:13;;;;;;;;;;;;;;;;;;2210099;59;1433;-74
2022/06/15 16:13:46;;;;;;;;;;;;;;;;;;2210090;59;1096;-74
2022/06/15 16:16:19;;;;;;;;;;;;;;;;;;2210433;59;1730;-75
2022/06/15 16:18:55;;;;;;;;;;;;;;;;;;2209929;59;1767;-75
2022/06/15 16:21:29;;;;;;;;;;;;;;;;;;2209271;59;1787;-75
2022/06/15 16:24:03;;;;;;;;;;;;;;;;;;2209000;59;1979;-74
2022/06/15 16:26:37;;;;;;;;;;;;;;;;;;2210650;67;1204;-74
2022/06/15 16:29:11;;;;;;;;;;;;;;;;;;2209505;59;1215;-75
2022/06/15 16:31:44;;;;;;;;;;;;;;;;;;2210012;59;1247;-74
2022/06/15 16:34:20;;;;;;;;;;;;;;;;;;2210373;67;1113;-74
2022/06/15 16:36:53;;;;;;;;;;;;;;;;;;2210444;67;1218;-74
2022/06/15 16:39:27;;;;;;;;;;;;;;;;;;2209928;59;1925;-74
2022/06/15 16:42:00;;;;;;;;;;;;;;;;;;2209624;59;2021;-75
2022/06/15 16:44:35;;;;;;;;;;;;;;;;;;2210191;67;1929;-75
2022/06/15 16:47:08;;;;;;;;;;;;;;;;;;2210225;67;1167;-75
2022/06/15 16:49:44;;;;;;;;;;;;;;;;;;2211154;67;1291;-75
2022/06/15 16:52:17;;;;;;;;;;;;;;;;;;2210582;59;1144;-74
2022/06/15 16:54:50;;;;;;;;;;;;;;;;;;2210605;67;1258;-75
2022/06/15 16:57:24;;;;;;;;;;;;;;;;;;2210586;63;1122;-75
2022/06/15 16:59:57;;;;;;;;;;;;;;;;;;2206651;67;2059;-76
2022/06/15 17:02:30;;;;;;;;;;;;;;;;;;2210243;67;1234;-75
2022/06/15 17:05:06;;;;;;;;;;;;;;;;;;2210093;59;1929;-74
2022/06/15 17:07:40;;;;;;;;;;;;;;;;;;2211112;67;1258;-74
2022/06/15 17:10:13;;;;;;;;;;;;;;;;;;2208487;67;1434;-75
2022/06/15 17:12:46;;;;;;;;;;;;;;;;;;2210420;59;1496;-76
2022/06/15 17:15:20;;;;;;;;;;;;;;;;;;2210257;67;1131;-77
2022/06/15 17:17:53;;;;;;;;;;;;;;;;;;2210333;67;1278;-75
2022/06/15 17:20:29;;;;;;;;;;;;;;;;;;2210177;59;1151;-75
2022/06/15 17:23:03;;;;;;;;;;;;;;;;;;2210609;67;1925;-74
2022/06/15 17:25:36;;;;;;;;;;;;;;;;;;2210989;67;1280;-74
2022/06/15 17:28:10;;;;;;;;;;;;;;;;;;2206935;67;1267;-74
2022/06/15 17:30:45;;;;;;;;;;;;;;;;;;2210307;59;1228;-75
2022/06/15 17:33:18;;;;;;;;;;;;;;;;;;2210044;60;1024;-75
2022/06/15 17:35:54;;;;;;;;;;;;;;;;;;2210269;67;1216;-74
2022/06/15 17:38:27;;;;;;;;;;;;;;;;;;2209978;59;1886;-74
2022/06/15 17:41:00;;;;;;;;;;;;;;;;;;2209964;59;1818;-77
2022/06/15 17:43:34;;;;;;;;;;;;;;;;;;2210328;67;1983;-74
2022/06/15 17:46:07;;;;;;;;;;;;;;;;;;2209789;67;1020;-74
2022/06/15 17:48:41;;;;;;;;;;;;;;;;;;2209819;67;1295;-75
2022/06/15 17:51:17;;;;;;;;;;;;;;;;;;2209791;67;1111;-75
2022/06/15 17:53:51;;;;;;;;;;;;;;;;;;2209244;59;1765;-74
2022/06/15 17:56:24;;;;;;;;;;;;;;;;;;2205798;59;1755;-76
2022/06/15 17:58:58;;;;;;;;;;;;;;;;;;2208983;59;1787;-75
2022/06/15 18:01:32;;;;;;;;;;;;;;;;;;2209483;59;1153;-75
2022/06/15 18:04:05;;;;;;;;;;;;;;;;;;2209327;59;1936;-74
2022/06/15 18:06:41;;;;;;;;;;;;;;;;;;2209410;59;1901;-75
2022/06/15 18:09:14;;;;;;;;;;;;;;;;;;2209458;59;1345;-75
2022/06/15 18:11:49;;;;;;;;;;;;;;;;;;2209590;59;1370;-74
2022/06/15 18:14:23;;;;;;;;;;;;;;;;;;2209965;67;1087;-75
2022/06/15 18:16:59;;;;;;;;;;;;;;;;;;2205882;60;1332;-76
2022/06/15 18:19:34;;;;;;;;;;;;;;;;;;2213380;53;3709;-66
2022/06/15 18:22:12;;;;;;;;;;;;;;;;;;2211317;67;1177;-64
2022/06/15 18:24:45;;;;;;;;;;;;;;;;;;2210724;67;1939;-65
2022/06/15 18:27:19;;;;;;;;;;;;;;;;;;2209745;67;1023;-65
2022/06/15 18:29:52;;;;;;;;;;;;;;;;;;2209643;60;1189;-66
2022/06/15 18:32:28;;;;;;;;;;;;;;;;;;2210068;67;1191;-65
2022/06/15 18:35:03;;;;;;;;;;;;;;;;;;2209527;67;1343;-66
2022/06/15 18:37:39;;;;;;;;;;;;;;;;;;2211004;60;1109;-66
2022/06/15 18:40:14;;;;;;;;;;;;;;;;;;2210043;59;2058;-65
2022/06/15 18:42:48;;;;;;;;;;;;;;;;;;2211064;59;2304;-64
2022/06/15 18:48:07;;;;;;;;;;;;;;;;;;2205794;67;1293;-66
2022/06/15 18:50:40;;;;;;;;;;;;;;;;;;2209797;67;1214;-64
2022/06/15 18:53:16;;;;;;;;;;;;;;;;;;2206075;67;1849;-64
2022/06/15 18:55:49;;;;;;;;;;;;;;;;;;2210516;67;1228;-64
2022/06/15 18:58:23;;;;;;;;;;;;;;;;;;2209331;67;1338;-66
2022/06/15 19:00:56;;;;;;;;;;;;;;;;;;2209120;67;1285;-66
2022/06/15 19:03:29;;;;;;;;;;;;;;;;;;2209791;59;1967;-66
2022/06/15 19:06:02;;;;;;;;;;;;;;;;;;2210891;67;1194;-66
2022/06/15 19:08:39;;;;;;;;;;;;;;;;;;2209998;67;1254;-65
2022/06/15 19:11:12;;;;;;;;;;;;;;;;;;2210264;59;1477;-65
2022/06/15 19:13:45;;;;;;;;;;;;;;;;;;2209170;67;1303;-66
2022/06/15 19:16:18;;;;;;;;;;;;;;;;;;2210146;67;1096;-64
2022/06/15 19:18:52;;;;;;;;;;;;;;;;;;2209085;59;1918;-66
2022/06/15 19:21:27;;;;;;;;;;;;;;;;;;2210264;67;1115;-66
2022/06/15 19:24:04;;;;;;;;;;;;;;;;;;2210975;67;1983;-62
2022/06/15 19:26:40;;;;;;;;;;;;;;;;;;2210007;67;1215;-66
2022/06/15 19:29:13;;;;;;;;;;;;;;;;;;2209704;67;1207;-66
2022/06/15 19:31:47;;;;;;;;;;;;;;;;;;2209788;67;1088;-64
2022/06/15 19:34:20;;;;;;;;;;;;;;;;;;2209395;67;1229;-64
2022/06/15 19:36:54;;;;;;;;;;;;;;;;;;2209534;67;1225;-65
2022/06/15 19:39:30;;;;;;;;;;;;;;;;;;2209763;59;1989;-66
2022/06/15 19:42:05;;;;;;;;;;;;;;;;;;2209561;59;2068;-65
2022/06/15 19:44:39;;;;;;;;;;;;;;;;;;2209107;67;1984;-66
2022/06/15 19:47:12;;;;;;;;;;;;;;;;;;2210776;67;1155;-64
2022/06/15 19:49:45;;;;;;;;;;;;;;;;;;2208987;67;1214;-64
2022/06/15 19:52:18;;;;;;;;;;;;;;;;;;2210327;67;1096;-64
2022/06/15 19:54:54;;;;;;;;;;;;;;;;;;2209380;67;1272;-64
2022/06/15 19:57:28;;;;;;;;;;;;;;;;;;2210103;59;1274;-65
2022/06/15 20:00:02;;;;;;;;;;;;;;;;;;2209300;67;1199;-66
2022/06/15 20:02:36;;;;;;;;;;;;;;;;;;2210461;59;1300;-66
2022/06/15 20:05:11;;;;;;;;;;;;;;;;;;2210860;67;1944;-65
2022/06/15 20:07:44;;;;;;;;;;;;;;;;;;2209903;67;1192;-66
2022/06/15 20:10:22;;;;;;;;;;;;;;;;;;2209825;67;1096;-65
2022/06/15 20:12:55;;;;;;;;;;;;;;;;;;2209731;67;1371;-64
2022/06/15 20:15:30;;;;;;;;;;;;;;;;;;2209527;67;1345;-65
2022/06/15 20:18:03;;;;;;;;;;;;;;;;;;2210719;67;1230;-64
2022/06/15 20:20:39;;;;;;;;;;;;;;;;;;2209802;59;1174;-64
2022/06/15 20:23:14;;;;;;;;;;;;;;;;;;2211116;67;1104;-65
2022/06/15 20:25:52;;;;;;;;;;;;;;;;;;2210686;67;1932;-66
2022/06/15 20:28:27;;;;;;;;;;;;;;;;;;2209924;67;1091;-64
2022/06/15 20:31:01;;;;;;;;;;;;;;;;;;2210843;67;1187;-64
2022/06/15 20:33:34;;;;;;;;;;;;;;;;;;2210717;67;1242;-65
2022/06/15 20:36:07;;;;;;;;;;;;;;;;;;2209829;67;1090;-63
2022/06/15 20:38:40;;;;;;;;;;;;;;;;;;2210816;59;2077;-65
2022/06/15 20:41:18;;;;;;;;;;;;;;;;;;2210525;59;1917;-65
2022/06/15 20:43:53;;;;;;;;;;;;;;;;;;2211046;67;1246;-65
2022/06/15 20:46:28;;;;;;;;;;;;;;;;;;2209925;67;1977;-65